sensor_id;sensor_type;location;lat;lon;timestamp;P1;durP1;ratioP1;P2;durP2;ratioP2
7737;SDS011;29398;45.328;5.558;2022-09-09T00:00:53;1.95;;;0.90;;
7737;SDS011;29398;45.328;5.558;2022-09-09T00:02:01;2.28;;;0.98;;
7737;SDS011;29398;45.328;5.558;2022-09-09T00:03:07;1.95;;;0.98;;
7737;SDS011;29398;45.328;5.558;2022-09-09T00:04:15;2.78;;;0.85;;
7737;SDS011;29398;45.328;5.558;2022-09-09T00:05:26;3.35;;;0.90;;
7737;SDS011;29398;45.328;5.558;2022-09-09T00:06:34;3.33;;;0.85;;
7737;SDS011;29398;45.328;5.558;2022-09-09T00:07:45;3.38;;;1.15;;
7737;SDS011;29398;45.328;5.558;2022-09-09T00:08:56;3.55;;;1.13;;
7737;SDS011;29398;45.328;5.558;2022-09-09T00:10:05;1.50;;;0.90;;
7737;SDS011;29398;45.328;5.558;2022-09-09T00:11:16;1.40;;;0.80;;
7737;SDS011;29398;45.328;5.558;2022-09-09T00:12:27;2.72;;;1.20;;
7737;SDS011;29398;45.328;5.558;2022-09-09T00:13:34;3.50;;;1.00;;
7737;SDS011;29398;45.328;5.558;2022-09-09T00:14:42;2.83;;;1.00;;
7737;SDS011;29398;45.328;5.558;2022-09-09T00:15:53;3.25;;;1.13;;
7737;SDS011;29398;45.328;5.558;2022-09-09T00:17:01;2.80;;;1.10;;
7737;SDS011;29398;45.328;5.558;2022-09-09T00:18:07;1.85;;;1.20;;
7737;SDS011;29398;45.328;5.558;2022-09-09T00:19:19;4.45;;;1.20;;
7737;SDS011;29398;45.328;5.558;2022-09-09T00:20:26;2.67;;;1.10;;
7737;SDS011;29398;45.328;5.558;2022-09-09T00:21:34;2.45;;;1.15;;
7737;SDS011;29398;45.328;5.558;2022-09-09T00:22:39;1.98;;;1.05;;
7737;SDS011;29398;45.328;5.558;2022-09-09T00:23:47;4.65;;;1.25;;
7737;SDS011;29398;45.328;5.558;2022-09-09T00:24:52;1.98;;;1.08;;
7737;SDS011;29398;45.328;5.558;2022-09-09T00:25:58;4.07;;;1.17;;
7737;SDS011;29398;45.328;5.558;2022-09-09T00:27:06;1.23;;;0.93;;
7737;SDS011;29398;45.328;5.558;2022-09-09T00:28:13;2.95;;;1.10;;
7737;SDS011;29398;45.328;5.558;2022-09-09T00:29:21;4.70;;;1.33;;
7737;SDS011;29398;45.328;5.558;2022-09-09T00:30:31;3.85;;;1.33;;
7737;SDS011;29398;45.328;5.558;2022-09-09T00:31:36;2.22;;;1.08;;
7737;SDS011;29398;45.328;5.558;2022-09-09T00:32:37;3.58;;;0.90;;
7737;SDS011;29398;45.328;5.558;2022-09-09T00:33:39;1.80;;;0.90;;
7737;SDS011;29398;45.328;5.558;2022-09-09T00:34:47;3.05;;;1.10;;
7737;SDS011;29398;45.328;5.558;2022-09-09T00:35:51;2.97;;;1.00;;
7737;SDS011;29398;45.328;5.558;2022-09-09T00:36:56;3.55;;;1.20;;
7737;SDS011;29398;45.328;5.558;2022-09-09T00:38:00;2.05;;;1.00;;
7737;SDS011;29398;45.328;5.558;2022-09-09T00:39:08;2.25;;;1.00;;
7737;SDS011;29398;45.328;5.558;2022-09-09T00:40:17;1.95;;;0.80;;
7737;SDS011;29398;45.328;5.558;2022-09-09T00:41:29;2.85;;;0.90;;
7737;SDS011;29398;45.328;5.558;2022-09-09T00:42:51;1.33;;;0.88;;
7737;SDS011;29398;45.328;5.558;2022-09-09T00:44:02;5.35;;;0.88;;
7737;SDS011;29398;45.328;5.558;2022-09-09T00:45:19;2.88;;;0.98;;
7737;SDS011;29398;45.328;5.558;2022-09-09T00:46:41;2.00;;;0.95;;
7737;SDS011;29398;45.328;5.558;2022-09-09T00:47:53;4.60;;;1.10;;
7737;SDS011;29398;45.328;5.558;2022-09-09T00:48:59;1.63;;;1.00;;
7737;SDS011;29398;45.328;5.558;2022-09-09T00:50:13;1.33;;;0.63;;
7737;SDS011;29398;45.328;5.558;2022-09-09T00:51:36;1.85;;;1.13;;
7737;SDS011;29398;45.328;5.558;2022-09-09T00:52:54;1.73;;;0.98;;
7737;SDS011;29398;45.328;5.558;2022-09-09T00:54:07;3.00;;;1.08;;
7737;SDS011;29398;45.328;5.558;2022-09-09T00:55:19;3.33;;;0.73;;
7737;SDS011;29398;45.328;5.558;2022-09-09T00:56:28;1.13;;;1.02;;
7737;SDS011;29398;45.328;5.558;2022-09-09T00:57:35;1.33;;;1.00;;
7737;SDS011;29398;45.328;5.558;2022-09-09T00:58:38;2.88;;;0.90;;
7737;SDS011;29398;45.328;5.558;2022-09-09T00:59:41;1.70;;;0.90;;
7737;SDS011;29398;45.328;5.558;2022-09-09T01:00:49;1.10;;;1.00;;
7737;SDS011;29398;45.328;5.558;2022-09-09T01:01:58;2.40;;;0.90;;
7737;SDS011;29398;45.328;5.558;2022-09-09T01:03:03;4.13;;;1.08;;
7737;SDS011;29398;45.328;5.558;2022-09-09T01:04:22;2.33;;;1.13;;
7737;SDS011;29398;45.328;5.558;2022-09-09T01:05:28;3.85;;;1.08;;
7737;SDS011;29398;45.328;5.558;2022-09-09T01:06:37;4.18;;;1.00;;
7737;SDS011;29398;45.328;5.558;2022-09-09T01:07:39;2.63;;;0.82;;
7737;SDS011;29398;45.328;5.558;2022-09-09T01:09:00;1.42;;;0.80;;
7737;SDS011;29398;45.328;5.558;2022-09-09T01:10:11;3.72;;;0.80;;
7737;SDS011;29398;45.328;5.558;2022-09-09T01:11:22;2.45;;;0.82;;
7737;SDS011;29398;45.328;5.558;2022-09-09T01:12:32;1.45;;;0.93;;
7737;SDS011;29398;45.328;5.558;2022-09-09T01:13:39;1.95;;;0.80;;
7737;SDS011;29398;45.328;5.558;2022-09-09T01:14:45;3.40;;;0.90;;
7737;SDS011;29398;45.328;5.558;2022-09-09T01:15:51;2.65;;;1.00;;
7737;SDS011;29398;45.328;5.558;2022-09-09T01:16:55;3.67;;;1.13;;
7737;SDS011;29398;45.328;5.558;2022-09-09T01:18:03;1.30;;;0.75;;
7737;SDS011;29398;45.328;5.558;2022-09-09T01:19:10;3.20;;;0.88;;
7737;SDS011;29398;45.328;5.558;2022-09-09T01:20:21;1.90;;;0.70;;
7737;SDS011;29398;45.328;5.558;2022-09-09T01:21:32;2.33;;;0.80;;
7737;SDS011;29398;45.328;5.558;2022-09-09T01:22:44;3.50;;;1.00;;
7737;SDS011;29398;45.328;5.558;2022-09-09T01:23:58;1.48;;;0.70;;
7737;SDS011;29398;45.328;5.558;2022-09-09T01:27:03;1.98;;;0.90;;
7737;SDS011;29398;45.328;5.558;2022-09-09T01:28:08;3.22;;;1.00;;
7737;SDS011;29398;45.328;5.558;2022-09-09T01:29:15;2.72;;;0.95;;
7737;SDS011;29398;45.328;5.558;2022-09-09T01:30:19;2.05;;;0.75;;
7737;SDS011;29398;45.328;5.558;2022-09-09T01:31:22;3.00;;;0.93;;
7737;SDS011;29398;45.328;5.558;2022-09-09T01:32:39;3.90;;;1.40;;
7737;SDS011;29398;45.328;5.558;2022-09-09T01:33:43;2.70;;;1.00;;
7737;SDS011;29398;45.328;5.558;2022-09-09T01:34:45;3.15;;;1.00;;
7737;SDS011;29398;45.328;5.558;2022-09-09T01:35:48;3.65;;;1.00;;
7737;SDS011;29398;45.328;5.558;2022-09-09T01:36:57;2.80;;;1.05;;
7737;SDS011;29398;45.328;5.558;2022-09-09T01:38:04;3.08;;;0.95;;
7737;SDS011;29398;45.328;5.558;2022-09-09T01:39:07;3.33;;;1.10;;
7737;SDS011;29398;45.328;5.558;2022-09-09T01:40:10;2.28;;;0.90;;
7737;SDS011;29398;45.328;5.558;2022-09-09T01:41:13;3.33;;;1.20;;
7737;SDS011;29398;45.328;5.558;2022-09-09T01:42:22;3.15;;;1.10;;
7737;SDS011;29398;45.328;5.558;2022-09-09T01:43:24;1.25;;;1.08;;
7737;SDS011;29398;45.328;5.558;2022-09-09T01:44:28;6.80;;;1.27;;
7737;SDS011;29398;45.328;5.558;2022-09-09T01:45:30;3.97;;;1.08;;
7737;SDS011;29398;45.328;5.558;2022-09-09T01:46:32;1.38;;;0.90;;
7737;SDS011;29398;45.328;5.558;2022-09-09T01:47:34;2.28;;;0.90;;
7737;SDS011;29398;45.328;5.558;2022-09-09T01:48:51;2.83;;;1.20;;
7737;SDS011;29398;45.328;5.558;2022-09-09T01:49:53;3.70;;;1.20;;
7737;SDS011;29398;45.328;5.558;2022-09-09T01:50:59;2.10;;;1.00;;
7737;SDS011;29398;45.328;5.558;2022-09-09T01:52:00;1.13;;;0.93;;
7737;SDS011;29398;45.328;5.558;2022-09-09T01:53:09;4.53;;;1.25;;
7737;SDS011;29398;45.328;5.558;2022-09-09T01:54:12;3.17;;;1.08;;
7737;SDS011;29398;45.328;5.558;2022-09-09T01:55:14;4.43;;;1.00;;
7737;SDS011;29398;45.328;5.558;2022-09-09T01:57:46;2.22;;;1.25;;
7737;SDS011;29398;45.328;5.558;2022-09-09T01:58:59;2.75;;;0.80;;
7737;SDS011;29398;45.328;5.558;2022-09-09T02:00:11;2.65;;;0.88;;
7737;SDS011;29398;45.328;5.558;2022-09-09T02:01:17;0.80;;;0.77;;
7737;SDS011;29398;45.328;5.558;2022-09-09T02:02:27;2.50;;;0.98;;
7737;SDS011;29398;45.328;5.558;2022-09-09T02:03:47;1.90;;;0.90;;
7737;SDS011;29398;45.328;5.558;2022-09-09T02:04:56;1.90;;;1.20;;
7737;SDS011;29398;45.328;5.558;2022-09-09T02:06:02;2.35;;;0.90;;
7737;SDS011;29398;45.328;5.558;2022-09-09T02:07:26;2.00;;;1.08;;
7737;SDS011;29398;45.328;5.558;2022-09-09T02:08:39;2.42;;;1.08;;
7737;SDS011;29398;45.328;5.558;2022-09-09T02:09:45;3.67;;;0.93;;
7737;SDS011;29398;45.328;5.558;2022-09-09T02:10:53;2.40;;;1.13;;
7737;SDS011;29398;45.328;5.558;2022-09-09T02:12:11;1.85;;;0.70;;
7737;SDS011;29398;45.328;5.558;2022-09-09T02:13:25;2.75;;;0.95;;
7737;SDS011;29398;45.328;5.558;2022-09-09T02:14:27;2.45;;;0.90;;
7737;SDS011;29398;45.328;5.558;2022-09-09T02:15:38;3.28;;;0.95;;
7737;SDS011;29398;45.328;5.558;2022-09-09T02:16:48;3.30;;;1.02;;
7737;SDS011;29398;45.328;5.558;2022-09-09T02:17:59;2.10;;;1.00;;
7737;SDS011;29398;45.328;5.558;2022-09-09T02:19:06;2.63;;;1.02;;
7737;SDS011;29398;45.328;5.558;2022-09-09T02:20:24;1.83;;;1.00;;
7737;SDS011;29398;45.328;5.558;2022-09-09T02:21:31;2.85;;;0.80;;
7737;SDS011;29398;45.328;5.558;2022-09-09T02:22:35;2.15;;;0.98;;
7737;SDS011;29398;45.328;5.558;2022-09-09T02:23:41;3.38;;;1.20;;
7737;SDS011;29398;45.328;5.558;2022-09-09T02:24:46;3.58;;;1.02;;
7737;SDS011;29398;45.328;5.558;2022-09-09T02:25:56;2.22;;;0.73;;
7737;SDS011;29398;45.328;5.558;2022-09-09T02:26:59;1.45;;;0.75;;
7737;SDS011;29398;45.328;5.558;2022-09-09T02:28:06;3.38;;;1.35;;
7737;SDS011;29398;45.328;5.558;2022-09-09T02:29:13;3.28;;;1.23;;
7737;SDS011;29398;45.328;5.558;2022-09-09T02:30:19;2.90;;;1.30;;
7737;SDS011;29398;45.328;5.558;2022-09-09T02:31:28;1.88;;;1.02;;
7737;SDS011;29398;45.328;5.558;2022-09-09T02:32:35;2.03;;;1.20;;
7737;SDS011;29398;45.328;5.558;2022-09-09T02:33:43;2.75;;;1.00;;
7737;SDS011;29398;45.328;5.558;2022-09-09T02:34:48;1.92;;;1.10;;
7737;SDS011;29398;45.328;5.558;2022-09-09T02:35:52;1.60;;;1.08;;
7737;SDS011;29398;45.328;5.558;2022-09-09T02:36:57;2.28;;;0.95;;
7737;SDS011;29398;45.328;5.558;2022-09-09T02:38:01;4.50;;;1.10;;
7737;SDS011;29398;45.328;5.558;2022-09-09T02:39:08;2.53;;;1.40;;
7737;SDS011;29398;45.328;5.558;2022-09-09T02:40:11;2.58;;;1.20;;
7737;SDS011;29398;45.328;5.558;2022-09-09T02:41:19;3.10;;;1.55;;
7737;SDS011;29398;45.328;5.558;2022-09-09T02:42:24;1.83;;;1.20;;
7737;SDS011;29398;45.328;5.558;2022-09-09T02:43:30;2.55;;;1.30;;
7737;SDS011;29398;45.328;5.558;2022-09-09T02:44:34;4.05;;;1.70;;
7737;SDS011;29398;45.328;5.558;2022-09-09T02:45:40;3.13;;;1.65;;
7737;SDS011;29398;45.328;5.558;2022-09-09T02:46:53;2.38;;;1.30;;
7737;SDS011;29398;45.328;5.558;2022-09-09T02:48:26;3.65;;;1.40;;
7737;SDS011;29398;45.328;5.558;2022-09-09T02:49:38;2.65;;;1.15;;
7737;SDS011;29398;45.328;5.558;2022-09-09T02:50:49;2.92;;;1.25;;
7737;SDS011;29398;45.328;5.558;2022-09-09T02:52:00;3.50;;;1.00;;
7737;SDS011;29398;45.328;5.558;2022-09-09T02:53:07;2.00;;;1.20;;
7737;SDS011;29398;45.328;5.558;2022-09-09T02:54:18;3.72;;;1.38;;
7737;SDS011;29398;45.328;5.558;2022-09-09T02:55:28;3.65;;;1.00;;
7737;SDS011;29398;45.328;5.558;2022-09-09T02:56:38;4.95;;;1.40;;
7737;SDS011;29398;45.328;5.558;2022-09-09T02:57:46;2.33;;;1.20;;
7737;SDS011;29398;45.328;5.558;2022-09-09T02:58:50;2.03;;;1.30;;
7737;SDS011;29398;45.328;5.558;2022-09-09T02:59:56;1.92;;;1.08;;
7737;SDS011;29398;45.328;5.558;2022-09-09T03:00:58;3.40;;;1.30;;
7737;SDS011;29398;45.328;5.558;2022-09-09T03:02:02;2.72;;;1.20;;
7737;SDS011;29398;45.328;5.558;2022-09-09T03:03:04;1.73;;;1.10;;
7737;SDS011;29398;45.328;5.558;2022-09-09T03:04:08;2.33;;;1.10;;
7737;SDS011;29398;45.328;5.558;2022-09-09T03:05:10;2.28;;;2.00;;
7737;SDS011;29398;45.328;5.558;2022-09-09T03:06:14;4.78;;;2.35;;
7737;SDS011;29398;45.328;5.558;2022-09-09T03:07:20;1.88;;;1.50;;
7737;SDS011;29398;45.328;5.558;2022-09-09T03:08:23;3.60;;;1.38;;
7737;SDS011;29398;45.328;5.558;2022-09-09T03:09:25;1.55;;;1.40;;
7737;SDS011;29398;45.328;5.558;2022-09-09T03:10:27;3.08;;;1.58;;
7737;SDS011;29398;45.328;5.558;2022-09-09T03:11:29;3.00;;;1.17;;
7737;SDS011;29398;45.328;5.558;2022-09-09T03:12:31;2.28;;;1.17;;
7737;SDS011;29398;45.328;5.558;2022-09-09T03:13:33;2.08;;;1.00;;
7737;SDS011;29398;45.328;5.558;2022-09-09T03:14:35;1.85;;;0.90;;
7737;SDS011;29398;45.328;5.558;2022-09-09T03:15:38;1.92;;;1.20;;
7737;SDS011;29398;45.328;5.558;2022-09-09T03:16:41;3.88;;;1.27;;
7737;SDS011;29398;45.328;5.558;2022-09-09T03:17:44;1.95;;;1.10;;
7737;SDS011;29398;45.328;5.558;2022-09-09T03:18:45;3.10;;;1.00;;
7737;SDS011;29398;45.328;5.558;2022-09-09T03:19:47;2.42;;;0.90;;
7737;SDS011;29398;45.328;5.558;2022-09-09T03:20:50;2.15;;;1.45;;
7737;SDS011;29398;45.328;5.558;2022-09-09T03:21:54;3.45;;;1.48;;
7737;SDS011;29398;45.328;5.558;2022-09-09T03:22:55;2.42;;;1.20;;
7737;SDS011;29398;45.328;5.558;2022-09-09T03:23:58;2.97;;;1.27;;
7737;SDS011;29398;45.328;5.558;2022-09-09T03:25:00;2.03;;;0.90;;
7737;SDS011;29398;45.328;5.558;2022-09-09T03:26:03;3.45;;;1.40;;
7737;SDS011;29398;45.328;5.558;2022-09-09T03:27:14;4.25;;;1.17;;
7737;SDS011;29398;45.328;5.558;2022-09-09T03:28:16;1.73;;;1.00;;
7737;SDS011;29398;45.328;5.558;2022-09-09T03:29:17;1.65;;;1.17;;
7737;SDS011;29398;45.328;5.558;2022-09-09T03:30:20;3.78;;;1.52;;
7737;SDS011;29398;45.328;5.558;2022-09-09T03:31:23;1.80;;;1.20;;
7737;SDS011;29398;45.328;5.558;2022-09-09T03:32:26;3.45;;;1.40;;
7737;SDS011;29398;45.328;5.558;2022-09-09T03:33:28;5.38;;;1.27;;
7737;SDS011;29398;45.328;5.558;2022-09-09T03:34:31;3.45;;;1.33;;
7737;SDS011;29398;45.328;5.558;2022-09-09T03:35:33;1.88;;;1.30;;
7737;SDS011;29398;45.328;5.558;2022-09-09T03:36:36;3.30;;;1.48;;
7737;SDS011;29398;45.328;5.558;2022-09-09T03:37:39;3.20;;;1.35;;
7737;SDS011;29398;45.328;5.558;2022-09-09T03:38:42;2.05;;;1.25;;
7737;SDS011;29398;45.328;5.558;2022-09-09T03:39:44;6.90;;;1.67;;
7737;SDS011;29398;45.328;5.558;2022-09-09T03:40:50;1.95;;;1.17;;
7737;SDS011;29398;45.328;5.558;2022-09-09T03:41:55;3.97;;;1.38;;
7737;SDS011;29398;45.328;5.558;2022-09-09T03:42:57;4.28;;;1.35;;
7737;SDS011;29398;45.328;5.558;2022-09-09T03:44:00;3.17;;;1.30;;
7737;SDS011;29398;45.328;5.558;2022-09-09T03:45:05;2.97;;;1.10;;
7737;SDS011;29398;45.328;5.558;2022-09-09T03:46:10;2.88;;;1.20;;
7737;SDS011;29398;45.328;5.558;2022-09-09T03:47:13;3.53;;;1.25;;
7737;SDS011;29398;45.328;5.558;2022-09-09T03:48:16;2.60;;;1.30;;
7737;SDS011;29398;45.328;5.558;2022-09-09T03:49:17;2.88;;;1.30;;
7737;SDS011;29398;45.328;5.558;2022-09-09T03:50:21;2.13;;;1.13;;
7737;SDS011;29398;45.328;5.558;2022-09-09T03:51:22;3.35;;;1.40;;
7737;SDS011;29398;45.328;5.558;2022-09-09T03:52:25;3.45;;;1.30;;
7737;SDS011;29398;45.328;5.558;2022-09-09T03:53:28;3.85;;;1.42;;
7737;SDS011;29398;45.328;5.558;2022-09-09T03:54:31;3.33;;;1.50;;
7737;SDS011;29398;45.328;5.558;2022-09-09T03:55:32;1.50;;;1.10;;
7737;SDS011;29398;45.328;5.558;2022-09-09T03:56:36;2.72;;;1.30;;
7737;SDS011;29398;45.328;5.558;2022-09-09T03:57:37;2.38;;;1.42;;
7737;SDS011;29398;45.328;5.558;2022-09-09T03:58:42;3.78;;;1.50;;
7737;SDS011;29398;45.328;5.558;2022-09-09T03:59:45;3.53;;;1.50;;
7737;SDS011;29398;45.328;5.558;2022-09-09T04:00:52;3.35;;;1.30;;
7737;SDS011;29398;45.328;5.558;2022-09-09T04:01:54;2.67;;;1.45;;
7737;SDS011;29398;45.328;5.558;2022-09-09T04:02:58;1.58;;;1.20;;
7737;SDS011;29398;45.328;5.558;2022-09-09T04:04:00;3.00;;;1.10;;
7737;SDS011;29398;45.328;5.558;2022-09-09T04:05:03;4.18;;;1.30;;
7737;SDS011;29398;45.328;5.558;2022-09-09T04:06:07;3.05;;;1.27;;
7737;SDS011;29398;45.328;5.558;2022-09-09T04:07:11;2.97;;;1.40;;
7737;SDS011;29398;45.328;5.558;2022-09-09T04:08:13;2.72;;;1.30;;
7737;SDS011;29398;45.328;5.558;2022-09-09T04:09:16;5.93;;;1.80;;
7737;SDS011;29398;45.328;5.558;2022-09-09T04:10:18;3.60;;;1.90;;
7737;SDS011;29398;45.328;5.558;2022-09-09T04:11:21;1.85;;;1.30;;
7737;SDS011;29398;45.328;5.558;2022-09-09T04:12:25;5.32;;;1.60;;
7737;SDS011;29398;45.328;5.558;2022-09-09T04:13:27;4.57;;;2.20;;
7737;SDS011;29398;45.328;5.558;2022-09-09T04:14:30;5.28;;;2.70;;
7737;SDS011;29398;45.328;5.558;2022-09-09T04:15:33;4.05;;;2.50;;
7737;SDS011;29398;45.328;5.558;2022-09-09T04:16:35;3.92;;;2.03;;
7737;SDS011;29398;45.328;5.558;2022-09-09T04:17:38;2.78;;;1.73;;
7737;SDS011;29398;45.328;5.558;2022-09-09T04:18:40;2.15;;;1.75;;
7737;SDS011;29398;45.328;5.558;2022-09-09T04:19:43;3.10;;;1.30;;
7737;SDS011;29398;45.328;5.558;2022-09-09T04:20:45;3.08;;;1.60;;
7737;SDS011;29398;45.328;5.558;2022-09-09T04:21:48;2.13;;;1.70;;
7737;SDS011;29398;45.328;5.558;2022-09-09T04:22:52;2.72;;;1.50;;
7737;SDS011;29398;45.328;5.558;2022-09-09T04:23:53;4.65;;;1.70;;
7737;SDS011;29398;45.328;5.558;2022-09-09T04:24:55;1.40;;;1.30;;
7737;SDS011;29398;45.328;5.558;2022-09-09T04:25:57;2.22;;;1.52;;
7737;SDS011;29398;45.328;5.558;2022-09-09T04:27:00;3.10;;;1.40;;
7737;SDS011;29398;45.328;5.558;2022-09-09T04:28:02;2.35;;;1.60;;
7737;SDS011;29398;45.328;5.558;2022-09-09T04:29:04;2.70;;;1.50;;
7737;SDS011;29398;45.328;5.558;2022-09-09T04:30:08;2.42;;;1.20;;
7737;SDS011;29398;45.328;5.558;2022-09-09T04:31:13;1.40;;;1.30;;
7737;SDS011;29398;45.328;5.558;2022-09-09T04:32:18;2.83;;;1.30;;
7737;SDS011;29398;45.328;5.558;2022-09-09T04:33:21;1.73;;;1.15;;
7737;SDS011;29398;45.328;5.558;2022-09-09T04:34:26;3.30;;;1.20;;
7737;SDS011;29398;45.328;5.558;2022-09-09T04:35:30;3.13;;;1.35;;
7737;SDS011;29398;45.328;5.558;2022-09-09T04:36:31;1.90;;;1.20;;
7737;SDS011;29398;45.328;5.558;2022-09-09T04:37:37;3.72;;;1.48;;
7737;SDS011;29398;45.328;5.558;2022-09-09T04:38:38;2.38;;;1.20;;
7737;SDS011;29398;45.328;5.558;2022-09-09T04:39:40;2.65;;;1.30;;
7737;SDS011;29398;45.328;5.558;2022-09-09T04:40:42;3.55;;;1.58;;
7737;SDS011;29398;45.328;5.558;2022-09-09T04:41:46;2.25;;;1.05;;
7737;SDS011;29398;45.328;5.558;2022-09-09T04:42:47;1.92;;;1.42;;
7737;SDS011;29398;45.328;5.558;2022-09-09T04:43:51;3.05;;;1.13;;
7737;SDS011;29398;45.328;5.558;2022-09-09T04:44:55;2.22;;;1.20;;
7737;SDS011;29398;45.328;5.558;2022-09-09T04:45:57;3.00;;;1.30;;
7737;SDS011;29398;45.328;5.558;2022-09-09T04:46:59;1.45;;;1.27;;
7737;SDS011;29398;45.328;5.558;2022-09-09T04:48:01;3.05;;;1.30;;
7737;SDS011;29398;45.328;5.558;2022-09-09T04:49:04;3.03;;;1.20;;
7737;SDS011;29398;45.328;5.558;2022-09-09T04:50:09;6.63;;;1.42;;
7737;SDS011;29398;45.328;5.558;2022-09-09T04:51:11;4.07;;;1.40;;
7737;SDS011;29398;45.328;5.558;2022-09-09T04:52:15;1.80;;;1.20;;
7737;SDS011;29398;45.328;5.558;2022-09-09T04:53:18;4.40;;;1.30;;
7737;SDS011;29398;45.328;5.558;2022-09-09T04:54:20;2.75;;;1.30;;
7737;SDS011;29398;45.328;5.558;2022-09-09T04:55:21;3.05;;;1.20;;
7737;SDS011;29398;45.328;5.558;2022-09-09T04:56:24;4.20;;;1.20;;
7737;SDS011;29398;45.328;5.558;2022-09-09T04:57:30;2.60;;;1.20;;
7737;SDS011;29398;45.328;5.558;2022-09-09T04:58:33;2.80;;;1.40;;
7737;SDS011;29398;45.328;5.558;2022-09-09T04:59:34;2.67;;;1.30;;
7737;SDS011;29398;45.328;5.558;2022-09-09T05:00:37;2.95;;;1.27;;
7737;SDS011;29398;45.328;5.558;2022-09-09T05:01:40;2.13;;;1.20;;
7737;SDS011;29398;45.328;5.558;2022-09-09T05:02:43;3.10;;;1.50;;
7737;SDS011;29398;45.328;5.558;2022-09-09T05:03:44;2.92;;;1.40;;
7737;SDS011;29398;45.328;5.558;2022-09-09T05:04:50;2.92;;;1.30;;
7737;SDS011;29398;45.328;5.558;2022-09-09T05:05:52;2.05;;;1.20;;
7737;SDS011;29398;45.328;5.558;2022-09-09T05:06:55;4.28;;;1.50;;
7737;SDS011;29398;45.328;5.558;2022-09-09T05:08:00;2.47;;;1.17;;
7737;SDS011;29398;45.328;5.558;2022-09-09T05:09:03;3.22;;;1.30;;
7737;SDS011;29398;45.328;5.558;2022-09-09T05:10:05;2.20;;;1.00;;
7737;SDS011;29398;45.328;5.558;2022-09-09T05:11:17;4.55;;;1.10;;
7737;SDS011;29398;45.328;5.558;2022-09-09T05:12:21;2.38;;;1.35;;
7737;SDS011;29398;45.328;5.558;2022-09-09T05:13:25;3.25;;;1.30;;
7737;SDS011;29398;45.328;5.558;2022-09-09T05:14:27;5.60;;;1.27;;
7737;SDS011;29398;45.328;5.558;2022-09-09T05:15:30;3.20;;;1.52;;
7737;SDS011;29398;45.328;5.558;2022-09-09T05:16:31;2.10;;;1.30;;
7737;SDS011;29398;45.328;5.558;2022-09-09T05:17:34;2.08;;;1.25;;
7737;SDS011;29398;45.328;5.558;2022-09-09T05:18:35;1.95;;;1.30;;
7737;SDS011;29398;45.328;5.558;2022-09-09T05:19:38;2.38;;;1.40;;
7737;SDS011;29398;45.328;5.558;2022-09-09T05:20:39;4.82;;;1.65;;
7737;SDS011;29398;45.328;5.558;2022-09-09T05:21:44;3.50;;;1.33;;
7737;SDS011;29398;45.328;5.558;2022-09-09T05:22:47;4.78;;;1.27;;
7737;SDS011;29398;45.328;5.558;2022-09-09T05:23:49;3.22;;;1.13;;
7737;SDS011;29398;45.328;5.558;2022-09-09T05:24:52;1.95;;;1.25;;
7737;SDS011;29398;45.328;5.558;2022-09-09T05:25:55;2.50;;;1.08;;
7737;SDS011;29398;45.328;5.558;2022-09-09T05:26:58;1.45;;;1.30;;
7737;SDS011;29398;45.328;5.558;2022-09-09T05:28:01;3.38;;;1.08;;
7737;SDS011;29398;45.328;5.558;2022-09-09T05:29:03;1.60;;;1.10;;
7737;SDS011;29398;45.328;5.558;2022-09-09T05:30:07;2.55;;;1.27;;
7737;SDS011;29398;45.328;5.558;2022-09-09T05:31:10;4.72;;;1.40;;
7737;SDS011;29398;45.328;5.558;2022-09-09T05:32:13;2.72;;;1.17;;
7737;SDS011;29398;45.328;5.558;2022-09-09T05:33:19;2.78;;;1.30;;
7737;SDS011;29398;45.328;5.558;2022-09-09T05:34:22;4.28;;;1.00;;
7737;SDS011;29398;45.328;5.558;2022-09-09T05:35:24;4.70;;;1.30;;
7737;SDS011;29398;45.328;5.558;2022-09-09T05:36:25;4.60;;;1.40;;
7737;SDS011;29398;45.328;5.558;2022-09-09T05:37:31;1.30;;;1.10;;
7737;SDS011;29398;45.328;5.558;2022-09-09T05:38:33;3.38;;;1.20;;
7737;SDS011;29398;45.328;5.558;2022-09-09T05:39:36;7.07;;;1.30;;
7737;SDS011;29398;45.328;5.558;2022-09-09T05:40:38;2.38;;;1.10;;
7737;SDS011;29398;45.328;5.558;2022-09-09T05:41:43;2.17;;;1.50;;
7737;SDS011;29398;45.328;5.558;2022-09-09T05:42:44;4.10;;;1.45;;
7737;SDS011;29398;45.328;5.558;2022-09-09T05:43:47;2.58;;;1.25;;
7737;SDS011;29398;45.328;5.558;2022-09-09T05:44:49;3.42;;;1.67;;
7737;SDS011;29398;45.328;5.558;2022-09-09T05:46:01;3.47;;;1.30;;
7737;SDS011;29398;45.328;5.558;2022-09-09T05:47:05;5.05;;;1.40;;
7737;SDS011;29398;45.328;5.558;2022-09-09T05:48:08;1.52;;;1.40;;
7737;SDS011;29398;45.328;5.558;2022-09-09T05:49:09;2.83;;;1.48;;
7737;SDS011;29398;45.328;5.558;2022-09-09T05:50:13;2.75;;;1.55;;
7737;SDS011;29398;45.328;5.558;2022-09-09T05:51:19;2.47;;;1.40;;
7737;SDS011;29398;45.328;5.558;2022-09-09T05:52:22;6.13;;;1.65;;
7737;SDS011;29398;45.328;5.558;2022-09-09T05:53:25;1.85;;;1.60;;
7737;SDS011;29398;45.328;5.558;2022-09-09T05:54:28;3.83;;;1.42;;
7737;SDS011;29398;45.328;5.558;2022-09-09T05:55:30;1.80;;;1.50;;
7737;SDS011;29398;45.328;5.558;2022-09-09T05:56:32;2.00;;;1.67;;
7737;SDS011;29398;45.328;5.558;2022-09-09T05:57:34;3.00;;;1.50;;
7737;SDS011;29398;45.328;5.558;2022-09-09T05:58:36;3.63;;;1.85;;
7737;SDS011;29398;45.328;5.558;2022-09-09T05:59:40;2.20;;;1.40;;
7737;SDS011;29398;45.328;5.558;2022-09-09T06:00:42;4.93;;;1.80;;
7737;SDS011;29398;45.328;5.558;2022-09-09T06:01:44;4.43;;;1.60;;
7737;SDS011;29398;45.328;5.558;2022-09-09T06:02:55;4.05;;;1.65;;
7737;SDS011;29398;45.328;5.558;2022-09-09T06:03:57;3.85;;;1.85;;
7737;SDS011;29398;45.328;5.558;2022-09-09T06:04:59;3.10;;;1.70;;
7737;SDS011;29398;45.328;5.558;2022-09-09T06:06:00;2.35;;;1.63;;
7737;SDS011;29398;45.328;5.558;2022-09-09T06:07:05;2.72;;;1.77;;
7737;SDS011;29398;45.328;5.558;2022-09-09T06:08:08;2.20;;;1.70;;
7737;SDS011;29398;45.328;5.558;2022-09-09T06:09:13;5.10;;;2.08;;
7737;SDS011;29398;45.328;5.558;2022-09-09T06:10:16;3.60;;;1.90;;
7737;SDS011;29398;45.328;5.558;2022-09-09T06:11:18;3.58;;;1.83;;
7737;SDS011;29398;45.328;5.558;2022-09-09T06:12:22;3.00;;;1.67;;
7737;SDS011;29398;45.328;5.558;2022-09-09T06:13:24;6.38;;;2.25;;
7737;SDS011;29398;45.328;5.558;2022-09-09T06:14:25;2.97;;;1.88;;
7737;SDS011;29398;45.328;5.558;2022-09-09T06:15:30;5.18;;;1.95;;
7737;SDS011;29398;45.328;5.558;2022-09-09T06:16:32;5.70;;;1.85;;
7737;SDS011;29398;45.328;5.558;2022-09-09T06:17:34;4.47;;;2.33;;
7737;SDS011;29398;45.328;5.558;2022-09-09T06:18:37;3.63;;;1.60;;
7737;SDS011;29398;45.328;5.558;2022-09-09T06:19:39;4.82;;;1.90;;
7737;SDS011;29398;45.328;5.558;2022-09-09T06:20:41;2.45;;;1.60;;
7737;SDS011;29398;45.328;5.558;2022-09-09T06:21:42;4.03;;;1.60;;
7737;SDS011;29398;45.328;5.558;2022-09-09T06:22:45;4.03;;;1.70;;
7737;SDS011;29398;45.328;5.558;2022-09-09T06:23:49;3.38;;;1.60;;
7737;SDS011;29398;45.328;5.558;2022-09-09T06:24:53;2.55;;;1.70;;
7737;SDS011;29398;45.328;5.558;2022-09-09T06:26:00;2.72;;;1.80;;
7737;SDS011;29398;45.328;5.558;2022-09-09T06:27:07;5.05;;;1.85;;
7737;SDS011;29398;45.328;5.558;2022-09-09T06:28:10;2.17;;;1.70;;
7737;SDS011;29398;45.328;5.558;2022-09-09T06:29:12;2.50;;;1.70;;
7737;SDS011;29398;45.328;5.558;2022-09-09T06:30:16;4.97;;;2.13;;
7737;SDS011;29398;45.328;5.558;2022-09-09T06:31:20;3.30;;;2.10;;
7737;SDS011;29398;45.328;5.558;2022-09-09T06:32:23;4.35;;;1.92;;
7737;SDS011;29398;45.328;5.558;2022-09-09T06:33:30;5.75;;;1.95;;
7737;SDS011;29398;45.328;5.558;2022-09-09T06:34:35;3.03;;;1.83;;
7737;SDS011;29398;45.328;5.558;2022-09-09T06:35:37;4.65;;;2.42;;
7737;SDS011;29398;45.328;5.558;2022-09-09T06:36:39;3.03;;;2.00;;
7737;SDS011;29398;45.328;5.558;2022-09-09T06:37:44;3.28;;;1.95;;
7737;SDS011;29398;45.328;5.558;2022-09-09T06:38:46;3.70;;;1.85;;
7737;SDS011;29398;45.328;5.558;2022-09-09T06:39:49;4.50;;;1.92;;
7737;SDS011;29398;45.328;5.558;2022-09-09T06:40:53;8.85;;;2.08;;
7737;SDS011;29398;45.328;5.558;2022-09-09T06:41:55;3.15;;;1.70;;
7737;SDS011;29398;45.328;5.558;2022-09-09T06:43:31;3.90;;;1.55;;